sensor_id;sensor_type;location;lat;lon;timestamp;P1;durP1;ratioP1;P2;durP2;ratioP2
17741;SDS011;8993;51.822;-2.268;2024-03-02T00:01:51;6.84;;;1.45;;
17741;SDS011;8993;51.822;-2.268;2024-03-02T00:06:55;6.87;;;1.55;;
17741;SDS011;8993;51.822;-2.268;2024-03-02T00:11:59;6.92;;;1.64;;
17741;SDS011;8993;51.822;-2.268;2024-03-02T00:17:03;7.07;;;1.67;;
17741;SDS011;8993;51.822;-2.268;2024-03-02T00:22:06;7.16;;;1.62;;
17741;SDS011;8993;51.822;-2.268;2024-03-02T00:27:10;7.73;;;2.02;;
17741;SDS011;8993;51.822;-2.268;2024-03-02T00:32:14;7.58;;;1.98;;
17741;SDS011;8993;51.822;-2.268;2024-03-02T00:37:17;8.56;;;2.37;;
17741;SDS011;8993;51.822;-2.268;2024-03-02T00:42:21;8.20;;;2.30;;
17741;SDS011;8993;51.822;-2.268;2024-03-02T00:47:25;24.01;;;8.99;;
17741;SDS011;8993;51.822;-2.268;2024-03-02T00:52:28;12.75;;;4.10;;
17741;SDS011;8993;51.822;-2.268;2024-03-02T00:57:32;8.47;;;2.25;;
17741;SDS011;8993;51.822;-2.268;2024-03-02T01:02:36;6.91;;;1.92;;
17741;SDS011;8993;51.822;-2.268;2024-03-02T01:07:39;7.89;;;1.55;;
17741;SDS011;8993;51.822;-2.268;2024-03-02T01:12:43;6.89;;;1.40;;
17741;SDS011;8993;51.822;-2.268;2024-03-02T01:17:47;5.95;;;1.29;;
17741;SDS011;8993;51.822;-2.268;2024-03-02T01:22:50;5.38;;;1.23;;
17741;SDS011;8993;51.822;-2.268;2024-03-02T01:27:54;6.20;;;1.37;;
17741;SDS011;8993;51.822;-2.268;2024-03-02T01:32:58;6.96;;;1.40;;
17741;SDS011;8993;51.822;-2.268;2024-03-02T01:38:02;6.61;;;1.37;;
17741;SDS011;8993;51.822;-2.268;2024-03-02T01:43:06;5.65;;;1.34;;
17741;SDS011;8993;51.822;-2.268;2024-03-02T01:48:09;5.57;;;1.30;;
17741;SDS011;8993;51.822;-2.268;2024-03-02T01:53:13;6.18;;;1.27;;
17741;SDS011;8993;51.822;-2.268;2024-03-02T01:58:17;6.54;;;1.21;;
17741;SDS011;8993;51.822;-2.268;2024-03-02T02:03:20;5.93;;;1.28;;
17741;SDS011;8993;51.822;-2.268;2024-03-02T02:08:24;6.39;;;1.16;;
17741;SDS011;8993;51.822;-2.268;2024-03-02T02:13:28;7.17;;;1.28;;
17741;SDS011;8993;51.822;-2.268;2024-03-02T02:18:32;7.31;;;1.80;;
17741;SDS011;8993;51.822;-2.268;2024-03-02T02:23:35;8.29;;;2.04;;
17741;SDS011;8993;51.822;-2.268;2024-03-02T02:28:39;8.10;;;1.94;;
17741;SDS011;8993;51.822;-2.268;2024-03-02T02:33:43;8.83;;;2.34;;
17741;SDS011;8993;51.822;-2.268;2024-03-02T02:38:46;6.69;;;1.75;;
17741;SDS011;8993;51.822;-2.268;2024-03-02T02:43:50;7.68;;;1.67;;
17741;SDS011;8993;51.822;-2.268;2024-03-02T02:48:54;9.63;;;1.86;;
17741;SDS011;8993;51.822;-2.268;2024-03-02T02:53:58;8.58;;;2.57;;
17741;SDS011;8993;51.822;-2.268;2024-03-02T02:59:02;9.34;;;2.38;;
17741;SDS011;8993;51.822;-2.268;2024-03-02T03:04:05;9.96;;;2.50;;
17741;SDS011;8993;51.822;-2.268;2024-03-02T03:09:09;8.96;;;2.44;;
17741;SDS011;8993;51.822;-2.268;2024-03-02T03:14:13;10.42;;;2.55;;
17741;SDS011;8993;51.822;-2.268;2024-03-02T03:19:17;11.42;;;2.48;;
17741;SDS011;8993;51.822;-2.268;2024-03-02T03:24:21;10.28;;;2.68;;
17741;SDS011;8993;51.822;-2.268;2024-03-02T03:29:24;11.00;;;2.65;;
17741;SDS011;8993;51.822;-2.268;2024-03-02T03:34:28;11.90;;;2.55;;
17741;SDS011;8993;51.822;-2.268;2024-03-02T03:39:33;10.10;;;2.44;;
17741;SDS011;8993;51.822;-2.268;2024-03-02T03:44:36;11.46;;;2.38;;
17741;SDS011;8993;51.822;-2.268;2024-03-02T03:49:39;9.72;;;2.34;;
17741;SDS011;8993;51.822;-2.268;2024-03-02T03:54:43;8.68;;;2.16;;
17741;SDS011;8993;51.822;-2.268;2024-03-02T03:59:48;9.89;;;2.22;;
17741;SDS011;8993;51.822;-2.268;2024-03-02T04:04:51;9.20;;;2.13;;
17741;SDS011;8993;51.822;-2.268;2024-03-02T04:09:55;9.69;;;2.46;;
17741;SDS011;8993;51.822;-2.268;2024-03-02T04:14:59;8.53;;;2.15;;
17741;SDS011;8993;51.822;-2.268;2024-03-02T04:20:03;9.38;;;2.59;;
17741;SDS011;8993;51.822;-2.268;2024-03-02T04:25:07;10.05;;;2.47;;
17741;SDS011;8993;51.822;-2.268;2024-03-02T04:30:10;8.84;;;2.36;;
17741;SDS011;8993;51.822;-2.268;2024-03-02T04:35:14;8.16;;;2.39;;
17741;SDS011;8993;51.822;-2.268;2024-03-02T04:40:18;8.41;;;2.26;;
17741;SDS011;8993;51.822;-2.268;2024-03-02T04:45:23;7.63;;;1.60;;
17741;SDS011;8993;51.822;-2.268;2024-03-02T04:50:25;6.51;;;1.46;;
17741;SDS011;8993;51.822;-2.268;2024-03-02T04:55:29;5.16;;;1.11;;
17741;SDS011;8993;51.822;-2.268;2024-03-02T05:00:33;3.68;;;0.78;;
17741;SDS011;8993;51.822;-2.268;2024-03-02T05:05:36;4.62;;;1.00;;
17741;SDS011;8993;51.822;-2.268;2024-03-02T05:10:40;2.43;;;0.65;;
17741;SDS011;8993;51.822;-2.268;2024-03-02T05:15:43;3.27;;;0.70;;
17741;SDS011;8993;51.822;-2.268;2024-03-02T05:20:47;2.07;;;0.55;;
17741;SDS011;8993;51.822;-2.268;2024-03-02T05:25:51;1.91;;;0.47;;
17741;SDS011;8993;51.822;-2.268;2024-03-02T05:30:54;1.68;;;0.45;;
17741;SDS011;8993;51.822;-2.268;2024-03-02T05:35:58;2.17;;;0.48;;
17741;SDS011;8993;51.822;-2.268;2024-03-02T05:41:02;4.08;;;0.76;;
17741;SDS011;8993;51.822;-2.268;2024-03-02T05:46:05;3.70;;;0.80;;
17741;SDS011;8993;51.822;-2.268;2024-03-02T05:51:09;4.63;;;1.00;;
17741;SDS011;8993;51.822;-2.268;2024-03-02T05:56:13;5.16;;;1.19;;
17741;SDS011;8993;51.822;-2.268;2024-03-02T06:01:16;5.30;;;1.20;;
17741;SDS011;8993;51.822;-2.268;2024-03-02T06:06:20;4.24;;;0.94;;
17741;SDS011;8993;51.822;-2.268;2024-03-02T06:11:24;5.00;;;1.10;;
17741;SDS011;8993;51.822;-2.268;2024-03-02T06:16:27;5.76;;;1.38;;
17741;SDS011;8993;51.822;-2.268;2024-03-02T06:21:31;6.40;;;1.60;;
17741;SDS011;8993;51.822;-2.268;2024-03-02T06:26:35;7.84;;;1.87;;
17741;SDS011;8993;51.822;-2.268;2024-03-02T06:31:38;7.04;;;1.66;;
17741;SDS011;8993;51.822;-2.268;2024-03-02T06:36:42;6.90;;;1.90;;
17741;SDS011;8993;51.822;-2.268;2024-03-02T06:41:46;6.06;;;1.31;;
17741;SDS011;8993;51.822;-2.268;2024-03-02T06:46:49;5.70;;;1.50;;
17741;SDS011;8993;51.822;-2.268;2024-03-02T06:51:53;4.69;;;0.89;;
17741;SDS011;8993;51.822;-2.268;2024-03-02T06:56:57;7.10;;;1.61;;
17741;SDS011;8993;51.822;-2.268;2024-03-02T07:02:00;7.98;;;1.99;;
17741;SDS011;8993;51.822;-2.268;2024-03-02T07:07:04;8.60;;;2.30;;
17741;SDS011;8993;51.822;-2.268;2024-03-02T07:12:08;7.90;;;2.20;;
17741;SDS011;8993;51.822;-2.268;2024-03-02T07:17:12;8.50;;;2.50;;
17741;SDS011;8993;51.822;-2.268;2024-03-02T07:22:15;9.63;;;2.91;;
17741;SDS011;8993;51.822;-2.268;2024-03-02T07:27:19;12.30;;;3.73;;
17741;SDS011;8993;51.822;-2.268;2024-03-02T07:32:22;12.20;;;4.10;;
17741;SDS011;8993;51.822;-2.268;2024-03-02T07:37:26;10.41;;;3.06;;
17741;SDS011;8993;51.822;-2.268;2024-03-02T07:42:30;12.90;;;3.58;;
17741;SDS011;8993;51.822;-2.268;2024-03-02T07:47:33;10.23;;;3.02;;
17741;SDS011;8993;51.822;-2.268;2024-03-02T07:52:37;11.80;;;3.70;;
17741;SDS011;8993;51.822;-2.268;2024-03-02T07:57:41;10.72;;;3.38;;
17741;SDS011;8993;51.822;-2.268;2024-03-02T08:02:44;11.48;;;3.43;;
17741;SDS011;8993;51.822;-2.268;2024-03-02T08:07:48;9.54;;;2.79;;
17741;SDS011;8993;51.822;-2.268;2024-03-02T08:12:52;8.68;;;2.38;;
17741;SDS011;8993;51.822;-2.268;2024-03-02T08:17:55;7.12;;;2.09;;
17741;SDS011;8993;51.822;-2.268;2024-03-02T08:22:59;8.47;;;2.67;;
17741;SDS011;8993;51.822;-2.268;2024-03-02T08:28:03;8.41;;;2.29;;
17741;SDS011;8993;51.822;-2.268;2024-03-02T08:33:06;7.26;;;1.74;;
17741;SDS011;8993;51.822;-2.268;2024-03-02T08:38:10;6.07;;;1.53;;
17741;SDS011;8993;51.822;-2.268;2024-03-02T08:43:14;6.97;;;1.57;;
17741;SDS011;8993;51.822;-2.268;2024-03-02T08:48:17;7.49;;;2.21;;
17741;SDS011;8993;51.822;-2.268;2024-03-02T08:53:21;7.63;;;1.96;;
17741;SDS011;8993;51.822;-2.268;2024-03-02T08:58:25;7.79;;;2.21;;
17741;SDS011;8993;51.822;-2.268;2024-03-02T09:03:28;6.88;;;1.82;;
17741;SDS011;8993;51.822;-2.268;2024-03-02T09:08:32;7.00;;;1.74;;
17741;SDS011;8993;51.822;-2.268;2024-03-02T09:13:36;6.59;;;1.80;;
17741;SDS011;8993;51.822;-2.268;2024-03-02T09:18:39;5.51;;;1.22;;
17741;SDS011;8993;51.822;-2.268;2024-03-02T09:23:43;6.27;;;1.25;;
17741;SDS011;8993;51.822;-2.268;2024-03-02T09:28:47;6.03;;;1.55;;
17741;SDS011;8993;51.822;-2.268;2024-03-02T09:33:50;6.35;;;1.55;;
17741;SDS011;8993;51.822;-2.268;2024-03-02T09:38:54;7.01;;;1.68;;
17741;SDS011;8993;51.822;-2.268;2024-03-02T09:43:58;7.12;;;1.89;;
17741;SDS011;8993;51.822;-2.268;2024-03-02T09:49:01;8.66;;;2.16;;
17741;SDS011;8993;51.822;-2.268;2024-03-02T09:54:05;6.81;;;1.56;;
17741;SDS011;8993;51.822;-2.268;2024-03-02T09:59:08;8.12;;;1.93;;
17741;SDS011;8993;51.822;-2.268;2024-03-02T10:04:12;6.66;;;1.82;;
17741;SDS011;8993;51.822;-2.268;2024-03-02T10:09:19;7.56;;;2.10;;
17741;SDS011;8993;51.822;-2.268;2024-03-02T10:14:19;6.62;;;1.79;;
17741;SDS011;8993;51.822;-2.268;2024-03-02T10:19:23;5.38;;;1.39;;
17741;SDS011;8993;51.822;-2.268;2024-03-02T10:24:27;5.73;;;1.52;;
17741;SDS011;8993;51.822;-2.268;2024-03-02T10:29:30;5.92;;;1.44;;
17741;SDS011;8993;51.822;-2.268;2024-03-02T10:34:34;6.23;;;1.64;;
17741;SDS011;8993;51.822;-2.268;2024-03-02T10:39:38;6.43;;;1.84;;
17741;SDS011;8993;51.822;-2.268;2024-03-02T10:44:42;7.12;;;2.06;;
17741;SDS011;8993;51.822;-2.268;2024-03-02T10:49:45;6.64;;;1.95;;
17741;SDS011;8993;51.822;-2.268;2024-03-02T10:54:49;6.91;;;1.85;;
17741;SDS011;8993;51.822;-2.268;2024-03-02T10:59:54;7.21;;;1.89;;
17741;SDS011;8993;51.822;-2.268;2024-03-02T11:04:58;5.97;;;1.60;;
17741;SDS011;8993;51.822;-2.268;2024-03-02T11:10:01;6.74;;;1.99;;
17741;SDS011;8993;51.822;-2.268;2024-03-02T11:15:06;6.53;;;1.92;;
17741;SDS011;8993;51.822;-2.268;2024-03-02T11:20:08;5.58;;;1.50;;
17741;SDS011;8993;51.822;-2.268;2024-03-02T11:25:22;5.80;;;1.60;;
17741;SDS011;8993;51.822;-2.268;2024-03-02T11:30:26;5.94;;;1.56;;
17741;SDS011;8993;51.822;-2.268;2024-03-02T11:35:20;5.50;;;1.49;;
17741;SDS011;8993;51.822;-2.268;2024-03-02T11:40:24;5.69;;;1.49;;
17741;SDS011;8993;51.822;-2.268;2024-03-02T11:45:27;6.03;;;1.64;;
17741;SDS011;8993;51.822;-2.268;2024-03-02T11:50:33;5.74;;;1.49;;
17741;SDS011;8993;51.822;-2.268;2024-03-02T11:55:35;5.26;;;1.46;;
17741;SDS011;8993;51.822;-2.268;2024-03-02T12:00:38;5.74;;;1.37;;
17741;SDS011;8993;51.822;-2.268;2024-03-02T12:05:43;5.37;;;1.42;;
17741;SDS011;8993;51.822;-2.268;2024-03-02T12:15:52;3.88;;;1.02;;
17741;SDS011;8993;51.822;-2.268;2024-03-02T12:20:54;5.85;;;1.68;;
17741;SDS011;8993;51.822;-2.268;2024-03-02T12:25:58;5.10;;;1.28;;
17741;SDS011;8993;51.822;-2.268;2024-03-02T12:31:02;6.74;;;1.64;;
17741;SDS011;8993;51.822;-2.268;2024-03-02T12:36:07;5.59;;;1.33;;
17741;SDS011;8993;51.822;-2.268;2024-03-02T12:41:09;2.95;;;0.82;;
17741;SDS011;8993;51.822;-2.268;2024-03-02T12:46:13;3.60;;;0.83;;
17741;SDS011;8993;51.822;-2.268;2024-03-02T12:51:16;3.62;;;0.80;;
17741;SDS011;8993;51.822;-2.268;2024-03-02T12:56:20;3.75;;;0.93;;
17741;SDS011;8993;51.822;-2.268;2024-03-02T13:01:24;5.37;;;1.25;;
17741;SDS011;8993;51.822;-2.268;2024-03-02T13:06:27;6.21;;;1.50;;
17741;SDS011;8993;51.822;-2.268;2024-03-02T13:11:31;6.35;;;1.74;;
17741;SDS011;8993;51.822;-2.268;2024-03-02T13:16:38;5.90;;;1.66;;
17741;SDS011;8993;51.822;-2.268;2024-03-02T13:21:38;5.62;;;1.53;;
17741;SDS011;8993;51.822;-2.268;2024-03-02T13:26:42;4.78;;;1.14;;
17741;SDS011;8993;51.822;-2.268;2024-03-02T13:31:45;4.57;;;1.15;;
17741;SDS011;8993;51.822;-2.268;2024-03-02T13:36:49;4.41;;;1.15;;
17741;SDS011;8993;51.822;-2.268;2024-03-02T13:41:53;4.66;;;1.20;;
17741;SDS011;8993;51.822;-2.268;2024-03-02T13:46:57;4.94;;;1.20;;
17741;SDS011;8993;51.822;-2.268;2024-03-02T13:52:01;5.72;;;1.48;;
17741;SDS011;8993;51.822;-2.268;2024-03-02T13:57:05;5.69;;;1.39;;
17741;SDS011;8993;51.822;-2.268;2024-03-02T14:02:08;5.54;;;1.52;;
17741;SDS011;8993;51.822;-2.268;2024-03-02T14:07:12;6.16;;;1.66;;
17741;SDS011;8993;51.822;-2.268;2024-03-02T14:12:16;6.44;;;1.60;;
17741;SDS011;8993;51.822;-2.268;2024-03-02T14:17:19;6.55;;;1.81;;
17741;SDS011;8993;51.822;-2.268;2024-03-02T14:22:23;7.74;;;2.19;;
17741;SDS011;8993;51.822;-2.268;2024-03-02T14:27:27;7.44;;;2.25;;
17741;SDS011;8993;51.822;-2.268;2024-03-02T14:32:30;7.71;;;2.61;;
17741;SDS011;8993;51.822;-2.268;2024-03-02T14:37:34;7.55;;;2.52;;
17741;SDS011;8993;51.822;-2.268;2024-03-02T14:42:38;7.54;;;2.28;;
17741;SDS011;8993;51.822;-2.268;2024-03-02T14:47:41;7.08;;;2.07;;
17741;SDS011;8993;51.822;-2.268;2024-03-02T14:52:45;9.11;;;2.73;;
17741;SDS011;8993;51.822;-2.268;2024-03-02T14:57:49;6.92;;;2.09;;
17741;SDS011;8993;51.822;-2.268;2024-03-02T15:02:52;7.19;;;1.87;;
17741;SDS011;8993;51.822;-2.268;2024-03-02T15:07:56;7.52;;;2.16;;
17741;SDS011;8993;51.822;-2.268;2024-03-02T15:13:00;15.23;;;5.29;;
17741;SDS011;8993;51.822;-2.268;2024-03-02T15:18:04;7.51;;;2.25;;
17741;SDS011;8993;51.822;-2.268;2024-03-02T15:23:08;8.01;;;2.70;;
17741;SDS011;8993;51.822;-2.268;2024-03-02T15:28:13;7.96;;;2.76;;
17741;SDS011;8993;51.822;-2.268;2024-03-02T15:33:16;9.28;;;3.44;;
17741;SDS011;8993;51.822;-2.268;2024-03-02T15:38:20;9.04;;;3.19;;
17741;SDS011;8993;51.822;-2.268;2024-03-02T15:43:24;8.32;;;3.07;;
17741;SDS011;8993;51.822;-2.268;2024-03-02T15:48:27;9.59;;;3.34;;
17741;SDS011;8993;51.822;-2.268;2024-03-02T15:53:31;9.73;;;3.24;;
17741;SDS011;8993;51.822;-2.268;2024-03-02T15:58:35;9.56;;;3.29;;
17741;SDS011;8993;51.822;-2.268;2024-03-02T16:03:38;8.97;;;3.40;;
17741;SDS011;8993;51.822;-2.268;2024-03-02T16:08:42;9.12;;;3.24;;
17741;SDS011;8993;51.822;-2.268;2024-03-02T16:13:46;9.12;;;2.92;;
17741;SDS011;8993;51.822;-2.268;2024-03-02T16:18:50;7.83;;;2.62;;
17741;SDS011;8993;51.822;-2.268;2024-03-02T16:23:54;9.33;;;2.96;;
17741;SDS011;8993;51.822;-2.268;2024-03-02T16:34:04;8.62;;;2.72;;
17741;SDS011;8993;51.822;-2.268;2024-03-02T16:39:07;7.78;;;2.53;;
17741;SDS011;8993;51.822;-2.268;2024-03-02T16:44:11;7.82;;;2.55;;
17741;SDS011;8993;51.822;-2.268;2024-03-02T16:49:15;8.18;;;2.71;;
17741;SDS011;8993;51.822;-2.268;2024-03-02T16:54:19;8.88;;;2.62;;
17741;SDS011;8993;51.822;-2.268;2024-03-02T16:59:23;8.22;;;2.31;;
17741;SDS011;8993;51.822;-2.268;2024-03-02T17:04:26;7.64;;;2.36;;
17741;SDS011;8993;51.822;-2.268;2024-03-02T17:09:30;8.01;;;2.38;;
17741;SDS011;8993;51.822;-2.268;2024-03-02T17:14:34;8.10;;;2.34;;
17741;SDS011;8993;51.822;-2.268;2024-03-02T17:19:37;8.31;;;2.51;;
17741;SDS011;8993;51.822;-2.268;2024-03-02T17:24:41;8.89;;;2.78;;
17741;SDS011;8993;51.822;-2.268;2024-03-02T17:29:45;9.31;;;3.18;;
17741;SDS011;8993;51.822;-2.268;2024-03-02T17:34:48;9.99;;;3.15;;
17741;SDS011;8993;51.822;-2.268;2024-03-02T17:39:52;10.34;;;3.11;;
17741;SDS011;8993;51.822;-2.268;2024-03-02T17:44:56;9.89;;;3.28;;
17741;SDS011;8993;51.822;-2.268;2024-03-02T17:50:00;9.97;;;3.49;;
17741;SDS011;8993;51.822;-2.268;2024-03-02T17:55:04;8.78;;;3.01;;
17741;SDS011;8993;51.822;-2.268;2024-03-02T18:00:07;8.88;;;2.98;;
17741;SDS011;8993;51.822;-2.268;2024-03-02T18:05:11;7.95;;;2.63;;
17741;SDS011;8993;51.822;-2.268;2024-03-02T18:10:14;8.15;;;2.81;;
17741;SDS011;8993;51.822;-2.268;2024-03-02T18:15:18;9.64;;;3.19;;
17741;SDS011;8993;51.822;-2.268;2024-03-02T18:20:22;9.65;;;3.59;;
17741;SDS011;8993;51.822;-2.268;2024-03-02T18:25:26;10.50;;;3.76;;
17741;SDS011;8993;51.822;-2.268;2024-03-02T18:30:29;8.54;;;2.97;;
17741;SDS011;8993;51.822;-2.268;2024-03-02T18:35:33;8.07;;;2.88;;
17741;SDS011;8993;51.822;-2.268;2024-03-02T18:40:37;8.93;;;2.90;;
17741;SDS011;8993;51.822;-2.268;2024-03-02T18:45:41;8.83;;;3.10;;
17741;SDS011;8993;51.822;-2.268;2024-03-02T18:50:44;8.64;;;3.13;;
17741;SDS011;8993;51.822;-2.268;2024-03-02T18:55:48;9.63;;;3.69;;
17741;SDS011;8993;51.822;-2.268;2024-03-02T19:00:54;10.45;;;4.04;;
17741;SDS011;8993;51.822;-2.268;2024-03-02T19:05:58;10.53;;;4.56;;
17741;SDS011;8993;51.822;-2.268;2024-03-02T19:11:02;11.97;;;4.98;;
17741;SDS011;8993;51.822;-2.268;2024-03-02T19:16:09;13.80;;;5.93;;
17741;SDS011;8993;51.822;-2.268;2024-03-02T19:21:09;11.83;;;5.32;;
17741;SDS011;8993;51.822;-2.268;2024-03-02T19:26:13;12.39;;;5.24;;
17741;SDS011;8993;51.822;-2.268;2024-03-02T19:31:17;13.98;;;6.67;;
17741;SDS011;8993;51.822;-2.268;2024-03-02T19:36:20;13.95;;;6.40;;
17741;SDS011;8993;51.822;-2.268;2024-03-02T19:41:24;14.58;;;5.91;;
17741;SDS011;8993;51.822;-2.268;2024-03-02T19:46:28;29.53;;;15.12;;
17741;SDS011;8993;51.822;-2.268;2024-03-02T19:51:32;20.44;;;10.55;;
17741;SDS011;8993;51.822;-2.268;2024-03-02T19:56:35;14.73;;;7.57;;
17741;SDS011;8993;51.822;-2.268;2024-03-02T20:01:39;13.24;;;6.03;;
17741;SDS011;8993;51.822;-2.268;2024-03-02T20:06:43;12.65;;;5.56;;
17741;SDS011;8993;51.822;-2.268;2024-03-02T20:11:47;12.41;;;5.24;;
17741;SDS011;8993;51.822;-2.268;2024-03-02T20:16:50;14.57;;;6.01;;
17741;SDS011;8993;51.822;-2.268;2024-03-02T20:21:54;17.00;;;8.10;;
17741;SDS011;8993;51.822;-2.268;2024-03-02T20:26:58;19.32;;;8.58;;
17741;SDS011;8993;51.822;-2.268;2024-03-02T20:32:02;19.70;;;8.77;;
17741;SDS011;8993;51.822;-2.268;2024-03-02T20:37:05;19.09;;;8.01;;
17741;SDS011;8993;51.822;-2.268;2024-03-02T20:42:09;17.35;;;7.56;;
17741;SDS011;8993;51.822;-2.268;2024-03-02T20:47:12;15.19;;;6.57;;
17741;SDS011;8993;51.822;-2.268;2024-03-02T20:52:16;14.86;;;6.11;;
17741;SDS011;8993;51.822;-2.268;2024-03-02T20:57:20;16.18;;;6.33;;
17741;SDS011;8993;51.822;-2.268;2024-03-02T21:02:24;16.79;;;6.67;;
17741;SDS011;8993;51.822;-2.268;2024-03-02T21:07:27;17.93;;;7.26;;
17741;SDS011;8993;51.822;-2.268;2024-03-02T21:12:31;18.46;;;7.58;;
17741;SDS011;8993;51.822;-2.268;2024-03-02T21:17:35;17.01;;;7.11;;
17741;SDS011;8993;51.822;-2.268;2024-03-02T21:22:38;16.19;;;7.04;;
17741;SDS011;8993;51.822;-2.268;2024-03-02T21:27:42;17.16;;;7.29;;
17741;SDS011;8993;51.822;-2.268;2024-03-02T21:32:46;18.42;;;7.91;;
17741;SDS011;8993;51.822;-2.268;2024-03-02T21:37:50;17.97;;;7.81;;
17741;SDS011;8993;51.822;-2.268;2024-03-02T21:42:54;18.82;;;7.80;;
17741;SDS011;8993;51.822;-2.268;2024-03-02T21:47:57;20.42;;;8.22;;
17741;SDS011;8993;51.822;-2.268;2024-03-02T21:53:01;18.65;;;8.13;;
17741;SDS011;8993;51.822;-2.268;2024-03-02T21:58:05;17.85;;;8.16;;
17741;SDS011;8993;51.822;-2.268;2024-03-02T22:03:08;20.22;;;9.08;;
17741;SDS011;8993;51.822;-2.268;2024-03-02T22:08:12;25.39;;;11.00;;
17741;SDS011;8993;51.822;-2.268;2024-03-02T22:13:16;24.25;;;11.45;;
17741;SDS011;8993;51.822;-2.268;2024-03-02T22:18:20;23.97;;;10.64;;
17741;SDS011;8993;51.822;-2.268;2024-03-02T22:23:24;23.02;;;10.68;;
17741;SDS011;8993;51.822;-2.268;2024-03-02T22:28:28;23.40;;;10.69;;
17741;SDS011;8993;51.822;-2.268;2024-03-02T22:33:32;25.72;;;10.90;;
17741;SDS011;8993;51.822;-2.268;2024-03-02T22:38:40;22.56;;;10.26;;
17741;SDS011;8993;51.822;-2.268;2024-03-02T22:43:44;22.15;;;10.04;;
17741;SDS011;8993;51.822;-2.268;2024-03-02T22:48:48;24.02;;;10.57;;
17741;SDS011;8993;51.822;-2.268;2024-03-02T22:53:52;26.28;;;11.17;;
17741;SDS011;8993;51.822;-2.268;2024-03-02T22:58:55;23.21;;;10.66;;
17741;SDS011;8993;51.822;-2.268;2024-03-02T23:03:59;22.95;;;10.45;;
17741;SDS011;8993;51.822;-2.268;2024-03-02T23:09:03;21.88;;;9.98;;
17741;SDS011;8993;51.822;-2.268;2024-03-02T23:14:07;21.06;;;9.54;;
17741;SDS011;8993;51.822;-2.268;2024-03-02T23:19:10;20.36;;;9.17;;
17741;SDS011;8993;51.822;-2.268;2024-03-02T23:24:14;19.98;;;9.17;;
17741;SDS011;8993;51.822;-2.268;2024-03-02T23:29:18;19.94;;;9.11;;
17741;SDS011;8993;51.822;-2.268;2024-03-02T23:34:21;20.24;;;8.46;;
17741;SDS011;8993;51.822;-2.268;2024-03-02T23:39:25;19.09;;;8.05;;
17741;SDS011;8993;51.822;-2.268;2024-03-02T23:44:29;17.92;;;7.65;;
17741;SDS011;8993;51.822;-2.268;2024-03-02T23:49:33;40.25;;;13.73;;
17741;SDS011;8993;51.822;-2.268;2024-03-02T23:54:37;31.76;;;11.54;;
17741;SDS011;8993;51.822;-2.268;2024-03-02T23:59:40;19.14;;;8.08;;
